createdAt,value
2019-02-05T00:00:41.258Z,101131.58
2019-02-05T00:03:09.057Z,101124.23
2019-02-05T00:05:35.314Z,101133.13
2019-02-05T00:08:01.619Z,101132.03
2019-02-05T00:10:28.121Z,101134.56
2019-02-05T00:12:54.685Z,101127.66
2019-02-05T00:15:20.934Z,101129.47
2019-02-05T00:17:47.513Z,101126.23
2019-02-05T00:20:13.815Z,101124.70
2019-02-05T00:22:40.009Z,101119.78
2019-02-05T00:25:06.667Z,101126.05
2019-02-05T00:27:32.881Z,101118.86
2019-02-05T00:29:59.060Z,101117.75
2019-02-05T00:32:25.237Z,101116.58
2019-02-05T00:34:51.469Z,101113.69
2019-02-05T00:37:18.060Z,101110.70
2019-02-05T00:39:44.221Z,101105.08
2019-02-05T00:42:10.396Z,101108.05
2019-02-05T00:44:36.588Z,101115.03
2019-02-05T00:47:02.923Z,101117.18
2019-02-05T00:49:29.094Z,101116.83
2019-02-05T00:51:55.338Z,101111.63
2019-02-05T00:54:21.499Z,101100.97
2019-02-05T00:56:48.128Z,101112.16
2019-02-05T00:59:14.428Z,101111.45
2019-02-05T01:01:40.740Z,101116.29
2019-02-05T01:04:07.002Z,101125.13
2019-02-05T01:06:33.160Z,101122.38
2019-02-05T01:08:59.349Z,101126.31
2019-02-05T01:11:27.425Z,101123.32
2019-02-05T01:13:53.640Z,101122.57
2019-02-05T01:16:20.184Z,101113.27
2019-02-05T01:18:46.458Z,101102.59
2019-02-05T01:21:12.887Z,101092.48
2019-02-05T01:23:39.330Z,101086.33
2019-02-05T01:26:05.534Z,101092.77
2019-02-05T01:28:32.082Z,101084.39
2019-02-05T01:30:58.293Z,101083.41
2019-02-05T01:33:24.461Z,101081.33
2019-02-05T01:35:50.928Z,101078.01
2019-02-05T01:38:18.435Z,101077.29
2019-02-05T01:40:45.263Z,101073.16
2019-02-05T01:43:11.482Z,101072.70
2019-02-05T01:45:37.679Z,101070.91
2019-02-05T01:48:04.102Z,101070.91
2019-02-05T01:50:30.275Z,101073.34
2019-02-05T01:52:56.570Z,101076.96
2019-02-05T01:55:22.751Z,101077.29
2019-02-05T01:57:49.057Z,101089.77
2019-02-05T02:00:21.855Z,101075.37
2019-02-05T02:02:48.028Z,101068.53
2019-02-05T02:05:14.398Z,101070.78
2019-02-05T02:07:40.866Z,101069.19
2019-02-05T02:10:20.299Z,101063.98
2019-02-05T02:12:46.515Z,101056.12
2019-02-05T02:15:12.898Z,101056.34
2019-02-05T02:17:39.367Z,101056.08
2019-02-05T02:20:10.506Z,101063.19
2019-02-05T02:22:36.666Z,101057.47
2019-02-05T02:25:07.688Z,101063.52
2019-02-05T02:27:33.860Z,101058.34
2019-02-05T02:30:00.357Z,101061.30
2019-02-05T02:32:26.507Z,101057.80
2019-02-05T02:34:52.698Z,101059.24
2019-02-05T02:37:18.864Z,101054.13
2019-02-05T02:39:45.094Z,101048.25
2019-02-05T02:42:11.271Z,101037.27
2019-02-05T02:44:37.476Z,101038.06
2019-02-05T02:47:03.858Z,101024.94
2019-02-05T02:49:30.054Z,101023.06
2019-02-05T02:51:59.214Z,101025.34
2019-02-05T02:54:32.333Z,101027.75
2019-02-05T02:57:04.852Z,101023.52
2019-02-05T02:59:26.863Z,101027.91
2019-02-05T03:01:53.104Z,101024.43
2019-02-05T03:04:19.636Z,101023.10
2019-02-05T03:06:45.799Z,101023.59
2019-02-05T03:09:12.618Z,101021.53
2019-02-05T03:11:38.795Z,101026.63
2019-02-05T03:14:05.288Z,101031.87
2019-02-05T03:16:31.623Z,101036.36
2019-02-05T03:18:58.066Z,101035.00
2019-02-05T03:21:24.268Z,101034.36
2019-02-05T03:23:52.051Z,101023.41
2019-02-05T03:26:21.547Z,101019.91
2019-02-05T03:28:47.766Z,101014.76
2019-02-05T03:31:13.938Z,101019.63
2019-02-05T03:33:40.135Z,101020.84
2019-02-05T03:36:06.649Z,101027.20
2019-02-05T03:38:32.867Z,101022.66
2019-02-05T03:41:00.254Z,101023.73
2019-02-05T03:43:26.638Z,101025.92
2019-02-05T03:45:54.934Z,101032.67
2019-02-05T03:48:21.417Z,101038.35
2019-02-05T03:50:53.310Z,101038.32
2019-02-05T03:53:31.170Z,101028.42
2019-02-05T03:56:41.238Z,101027.25
2019-02-05T03:59:49.118Z,101021.29
2019-02-05T04:02:45.105Z,101018.76
2019-02-05T04:05:37.087Z,101025.38
2019-02-05T04:08:34.793Z,101020.92
2019-02-05T04:11:32.531Z,101024.45
2019-02-05T04:14:31.487Z,101030.95
2019-02-05T04:17:33.977Z,101029.61
2019-02-05T04:20:26.141Z,101038.33
2019-02-05T04:23:06.770Z,101039.84
2019-02-05T04:26:04.837Z,101041.41
2019-02-05T04:29:09.315Z,101045.75
2019-02-05T04:32:07.961Z,101046.23
2019-02-05T04:35:14.438Z,101043.17
2019-02-05T04:37:58.874Z,101039.99
2019-02-05T04:40:48.374Z,101040.05
2019-02-05T04:43:50.225Z,101039.66
2019-02-05T04:46:33.861Z,101040.56
2019-02-05T04:49:27.838Z,101033.11
2019-02-05T04:52:27.666Z,101030.25
2019-02-05T04:55:02.471Z,101026.42
2019-02-05T04:57:57.509Z,101031.32
2019-02-05T05:00:38.568Z,101040.44
2019-02-05T05:03:33.791Z,101045.76
2019-02-05T05:06:33.192Z,101052.53
2019-02-05T05:09:38.867Z,101063.69
2019-02-05T05:12:06.078Z,101059.84
2019-02-05T05:14:32.322Z,101069.11
2019-02-05T05:16:58.774Z,101071.06
2019-02-05T05:19:25.009Z,101073.05
2019-02-05T05:21:51.261Z,101069.87
2019-02-05T05:24:17.439Z,101074.70
2019-02-05T05:26:43.814Z,101074.42
2019-02-05T05:29:10.028Z,101075.95
2019-02-05T05:31:36.188Z,101076.80
2019-02-05T05:34:02.925Z,101075.60
2019-02-05T05:36:29.069Z,101077.27
2019-02-05T05:38:55.707Z,101082.48
2019-02-05T05:41:21.885Z,101087.75
2019-02-05T05:43:48.471Z,101081.46
2019-02-05T05:46:15.040Z,101084.75
2019-02-05T05:48:41.242Z,101084.06
2019-02-05T05:51:07.373Z,101084.53
2019-02-05T05:53:33.554Z,101079.40
2019-02-05T05:55:59.780Z,101070.80
2019-02-05T05:58:25.960Z,101082.67
2019-02-05T06:00:52.582Z,101075.56
2019-02-05T06:03:18.873Z,101070.30
2019-02-05T06:05:45.193Z,101076.97
2019-02-05T06:08:11.366Z,101065.50
2019-02-05T06:10:37.597Z,101059.67
2019-02-05T06:13:03.789Z,101049.31
2019-02-05T06:15:30.046Z,101059.69
2019-02-05T06:17:56.228Z,101053.03
2019-02-05T06:20:22.477Z,101055.53
2019-02-05T06:22:49.093Z,101051.28
2019-02-05T06:25:15.326Z,101059.86
2019-02-05T06:27:41.771Z,101053.64
2019-02-05T06:30:15.630Z,101055.33
2019-02-05T06:32:41.992Z,101058.38
2019-02-05T06:35:09.016Z,101063.75
2019-02-05T06:37:35.240Z,101067.83
2019-02-05T06:40:01.544Z,101067.60
2019-02-05T06:42:28.150Z,101061.83
2019-02-05T06:44:54.683Z,101058.70
2019-02-05T06:47:21.213Z,101060.34
2019-02-05T06:49:47.409Z,101064.88
2019-02-05T06:52:13.576Z,101058.13
2019-02-05T06:54:39.770Z,101059.23
2019-02-05T06:57:06.262Z,101060.01
2019-02-05T06:59:32.800Z,101059.05
2019-02-05T07:01:59.118Z,101065.59
2019-02-05T07:04:25.706Z,101064.11
2019-02-05T07:06:51.865Z,101062.76
2019-02-05T07:09:18.028Z,101065.37
2019-02-05T07:11:44.225Z,101060.25
2019-02-05T07:14:10.655Z,101057.34
2019-02-05T07:16:37.482Z,101055.34
2019-02-05T07:19:03.809Z,101055.70
2019-02-05T07:21:30.002Z,101051.23
2019-02-05T07:23:56.253Z,101056.11
2019-02-05T07:26:22.641Z,101052.90
2019-02-05T07:28:58.216Z,101062.30
2019-02-05T07:31:16.905Z,101058.94
2019-02-05T07:33:44.064Z,101058.72
2019-02-05T07:36:10.249Z,101067.09
2019-02-05T07:38:36.446Z,101065.17
2019-02-05T07:41:02.865Z,101062.05
2019-02-05T07:43:29.044Z,101069.55
2019-02-05T07:45:55.240Z,101067.48
2019-02-05T07:48:21.423Z,101067.34
2019-02-05T07:50:48.215Z,101070.28
2019-02-05T07:53:14.418Z,101061.73
2019-02-05T07:55:40.666Z,101063.84
2019-02-05T07:58:06.864Z,101061.47
2019-02-05T08:00:34.612Z,101061.11
2019-02-05T08:03:00.804Z,101056.16
2019-02-05T08:05:32.873Z,101048.62
2019-02-05T08:08:00.044Z,101057.87
2019-02-05T08:10:26.562Z,101057.17
2019-02-05T08:12:52.756Z,101053.95
2019-02-05T08:15:23.058Z,101063.20
2019-02-05T08:17:49.225Z,101055.61
2019-02-05T08:20:15.489Z,101054.21
2019-02-05T08:22:41.846Z,101059.98
2019-02-05T08:25:12.947Z,101058.47
2019-02-05T08:27:39.148Z,101057.84
2019-02-05T08:30:22.415Z,101066.11
2019-02-05T08:32:48.594Z,101075.59
2019-02-05T08:35:16.474Z,101079.78
2019-02-05T08:37:42.670Z,101075.72
2019-02-05T08:40:13.333Z,101069.94
2019-02-05T08:42:39.821Z,101072.55
2019-02-05T08:45:14.189Z,101073.34
2019-02-05T08:47:39.324Z,101072.38
2019-02-05T08:50:11.195Z,101074.94
2019-02-05T08:52:37.409Z,101068.36
2019-02-05T08:55:08.848Z,101065.92
2019-02-05T08:57:35.041Z,101062.95
2019-02-05T09:00:01.555Z,101073.18
2019-02-05T09:02:27.853Z,101071.37
2019-02-05T09:04:54.081Z,101069.08
2019-02-05T09:07:20.678Z,101059.66
2019-02-05T09:09:46.840Z,101064.47
2019-02-05T09:12:13.057Z,101061.50
2019-02-05T09:14:39.251Z,101068.06
2019-02-05T09:17:05.419Z,101064.64
2019-02-05T09:19:31.597Z,101064.92
2019-02-05T09:21:57.810Z,101070.45
2019-02-05T09:24:23.962Z,101069.86
2019-02-05T09:26:50.156Z,101072.11
2019-02-05T09:29:16.331Z,101080.03
2019-02-05T09:31:42.603Z,101076.83
2019-02-05T09:34:08.785Z,101075.65
2019-02-05T09:36:34.999Z,101074.74
2019-02-05T09:39:01.247Z,101082.54
2019-02-05T09:41:27.463Z,101087.59
2019-02-05T09:43:53.685Z,101090.03
2019-02-05T09:46:19.978Z,101086.41
2019-02-05T09:48:46.141Z,101084.27
2019-02-05T09:51:12.453Z,101089.62
2019-02-05T09:53:38.818Z,101096.23
2019-02-05T09:56:05.341Z,101095.48
2019-02-05T09:58:31.532Z,101092.53
2019-02-05T10:00:59.706Z,101094.20
2019-02-05T10:03:25.794Z,101098.48
2019-02-05T10:05:52.047Z,101099.53
2019-02-05T10:08:18.286Z,101098.45
2019-02-05T10:10:44.447Z,101102.36
2019-02-05T10:13:10.622Z,101105.69
2019-02-05T10:15:40.421Z,101106.65
2019-02-05T10:18:09.438Z,101098.55
2019-02-05T10:20:35.980Z,101101.28
2019-02-05T10:23:03.704Z,101103.75
2019-02-05T10:25:30.204Z,101105.53
2019-02-05T10:27:56.407Z,101102.82
2019-02-05T10:30:26.404Z,101108.78
2019-02-05T10:32:52.974Z,101104.56
2019-02-05T10:35:19.817Z,101102.70
2019-02-05T10:37:46.618Z,101101.99
2019-02-05T10:40:13.092Z,101103.04
2019-02-05T10:42:39.664Z,101097.41
2019-02-05T10:45:11.635Z,101100.75
2019-02-05T10:47:38.631Z,101093.95
2019-02-05T10:50:09.194Z,101089.28
2019-02-05T10:52:35.572Z,101085.68
2019-02-05T10:55:06.476Z,101083.63
2019-02-05T10:57:32.666Z,101087.28
2019-02-05T11:00:08.585Z,101082.91
2019-02-05T11:02:27.335Z,101084.95
2019-02-05T11:04:53.497Z,101088.06
2019-02-05T11:07:19.686Z,101086.30
2019-02-05T11:09:45.917Z,101087.73
2019-02-05T11:12:12.165Z,101091.23
2019-02-05T11:14:38.750Z,101086.66
2019-02-05T11:17:05.175Z,101092.51
2019-02-05T11:19:31.339Z,101093.89
2019-02-05T11:21:57.535Z,101093.19
2019-02-05T11:24:23.710Z,101090.92
2019-02-05T11:26:49.903Z,101089.30
2019-02-05T11:29:16.477Z,101090.63
2019-02-05T11:31:42.648Z,101091.20
2019-02-05T11:34:09.737Z,101088.60
2019-02-05T11:36:36.637Z,101091.48
2019-02-05T11:39:08.240Z,101091.55
2019-02-05T11:41:34.402Z,101089.05
2019-02-05T11:44:00.597Z,101098.80
2019-02-05T11:46:26.749Z,101099.15
2019-02-05T11:48:52.923Z,101101.14
2019-02-05T11:51:19.092Z,101099.45
2019-02-05T11:53:45.307Z,101097.59
2019-02-05T11:56:11.479Z,101098.08
2019-02-05T11:58:38.095Z,101100.54
2019-02-05T12:01:05.602Z,101100.00
2019-02-05T12:03:31.948Z,101101.09
2019-02-05T12:05:58.355Z,101097.31
2019-02-05T12:08:25.092Z,101096.41
2019-02-05T12:10:52.254Z,101093.84
2019-02-05T12:13:18.505Z,101093.36
2019-02-05T12:15:44.696Z,101090.71
2019-02-05T12:18:11.467Z,101086.38
2019-02-05T12:20:37.976Z,101085.55
2019-02-05T12:23:04.556Z,101080.16
2019-02-05T12:25:30.750Z,101083.93
2019-02-05T12:27:56.980Z,101083.37
2019-02-05T12:30:44.870Z,101073.08
2019-02-05T12:33:07.412Z,101071.88
2019-02-05T12:35:33.793Z,101075.00
2019-02-05T12:38:00.297Z,101072.33
2019-02-05T12:40:27.089Z,101070.70
2019-02-05T12:42:53.283Z,101070.28
2019-02-05T12:45:31.918Z,101071.13
2019-02-05T12:47:58.210Z,101069.30
2019-02-05T12:50:44.286Z,101059.95
2019-02-05T12:53:10.932Z,101063.50
2019-02-05T12:55:37.080Z,101060.16
2019-02-05T12:58:04.640Z,101064.97
2019-02-05T13:00:41.014Z,101054.78
2019-02-05T13:03:08.602Z,101066.22
2019-02-05T13:05:34.888Z,101057.61
2019-02-05T13:08:01.438Z,101066.99
2019-02-05T13:10:36.355Z,101057.02
2019-02-05T13:13:04.779Z,101061.03
2019-02-05T13:15:31.409Z,101057.42
2019-02-05T13:17:57.808Z,101060.26
2019-02-05T13:20:27.433Z,101054.64
2019-02-05T13:22:54.007Z,101056.48
2019-02-05T13:25:23.553Z,101051.82
2019-02-05T13:27:49.699Z,101049.69
2019-02-05T13:30:25.334Z,101053.77
2019-02-05T13:32:51.520Z,101055.54
2019-02-05T13:35:17.888Z,101050.84
2019-02-05T13:37:44.164Z,101051.70
2019-02-05T13:40:22.458Z,101057.40
2019-02-05T13:42:48.826Z,101048.68
2019-02-05T13:45:19.234Z,101052.81
2019-02-05T13:47:45.724Z,101055.07
2019-02-05T13:50:19.429Z,101053.03
2019-02-05T13:52:46.101Z,101057.80
2019-02-05T13:55:16.920Z,101055.06
2019-02-05T13:57:43.153Z,101054.98
2019-02-05T14:00:31.067Z,101056.16
2019-02-05T14:02:57.248Z,101058.95
2019-02-05T14:05:23.849Z,101064.16
2019-02-05T14:07:50.032Z,101066.91
2019-02-05T14:10:24.638Z,101066.19
2019-02-05T14:12:51.150Z,101070.41
2019-02-05T14:15:23.537Z,101068.30
2019-02-05T14:17:50.295Z,101073.03
2019-02-05T14:20:16.731Z,101077.19
2019-02-05T14:22:43.283Z,101076.69
2019-02-05T14:25:13.394Z,101078.19
2019-02-05T14:27:39.566Z,101076.10
2019-02-05T14:30:20.466Z,101079.98
2019-02-05T14:32:47.047Z,101082.07
2019-02-05T14:35:13.379Z,101089.91
2019-02-05T14:37:39.654Z,101091.97
2019-02-05T14:40:11.555Z,101089.52
2019-02-05T14:42:37.757Z,101093.03
2019-02-05T14:45:09.215Z,101102.37
2019-02-05T14:47:35.549Z,101097.94
2019-02-05T14:50:06.546Z,101096.22
2019-02-05T14:52:33.051Z,101090.87
2019-02-05T14:54:59.280Z,101092.92
2019-02-05T14:57:25.465Z,101096.14
2019-02-05T14:59:51.696Z,101098.01
2019-02-05T15:02:17.873Z,101098.92
2019-02-05T15:04:44.229Z,101097.14
2019-02-05T15:07:10.407Z,101095.34
2019-02-05T15:09:36.618Z,101099.34
2019-02-05T15:12:03.471Z,101099.67
2019-02-05T15:14:29.733Z,101101.31
2019-02-05T15:16:55.895Z,101100.52
2019-02-05T15:19:22.097Z,101100.53
2019-02-05T15:21:48.275Z,101103.66
2019-02-05T15:24:14.514Z,101104.45
2019-02-05T15:26:40.677Z,101103.89
2019-02-05T15:29:07.128Z,101106.37
2019-02-05T15:31:33.632Z,101112.95
2019-02-05T15:34:01.170Z,101111.84
2019-02-05T15:36:27.765Z,101108.41
2019-02-05T15:38:54.058Z,101111.59
2019-02-05T15:41:20.318Z,101112.23
2019-02-05T15:43:46.506Z,101115.22
2019-02-05T15:46:12.718Z,101114.50
2019-02-05T15:48:38.890Z,101124.53
2019-02-05T15:51:05.502Z,101120.72
2019-02-05T15:53:31.698Z,101130.09
2019-02-05T15:55:58.150Z,101132.81
2019-02-05T15:58:24.319Z,101128.52
2019-02-05T16:00:50.548Z,101132.64
2019-02-05T16:03:17.084Z,101125.45
2019-02-05T16:05:43.602Z,101125.66
2019-02-05T16:08:09.794Z,101130.19
2019-02-05T16:10:36.414Z,101132.06
2019-02-05T16:13:03.309Z,101140.23
2019-02-05T16:15:29.563Z,101139.39
2019-02-05T16:17:55.742Z,101141.78
2019-02-05T16:20:22.169Z,101142.37
2019-02-05T16:22:49.780Z,101142.14
2019-02-05T16:25:16.607Z,101139.80
2019-02-05T16:27:42.762Z,101140.70
2019-02-05T16:30:18.941Z,101145.34
2019-02-05T16:32:45.441Z,101145.09
2019-02-05T16:35:12.246Z,101143.24
2019-02-05T16:37:38.424Z,101149.44
2019-02-05T16:40:12.349Z,101157.38
2019-02-05T16:42:38.515Z,101160.33
2019-02-05T16:45:12.491Z,101156.86
2019-02-05T16:47:38.688Z,101163.44
2019-02-05T16:50:10.584Z,101165.37
2019-02-05T16:52:36.764Z,101163.48
2019-02-05T16:55:05.817Z,101165.91
2019-02-05T16:57:32.052Z,101166.30
2019-02-05T16:59:58.310Z,101169.98
2019-02-05T17:02:28.996Z,101176.38
2019-02-05T17:04:53.287Z,101178.84
2019-02-05T17:07:19.541Z,101180.33
2019-02-05T17:09:45.950Z,101181.92
2019-02-05T17:12:12.167Z,101184.30
2019-02-05T17:14:38.648Z,101184.25
2019-02-05T17:17:04.903Z,101188.84
2019-02-05T17:19:31.898Z,101194.28
2019-02-05T17:21:58.482Z,101195.44
2019-02-05T17:24:24.649Z,101195.53
2019-02-05T17:26:50.895Z,101200.02
2019-02-05T17:29:17.058Z,101193.75
2019-02-05T17:31:43.301Z,101193.88
2019-02-05T17:34:09.503Z,101201.90
2019-02-05T17:36:35.704Z,101194.56
2019-02-05T17:39:03.946Z,101194.29
2019-02-05T17:41:30.514Z,101187.98
2019-02-05T17:43:56.689Z,101189.34
2019-02-05T17:46:22.903Z,101184.72
2019-02-05T17:48:49.388Z,101186.05
2019-02-05T17:51:15.615Z,101187.38
2019-02-05T17:53:41.792Z,101184.92
2019-02-05T17:56:08.043Z,101185.28
2019-02-05T17:58:34.402Z,101187.02
2019-02-05T18:01:02.886Z,101189.56
2019-02-05T18:03:29.330Z,101188.69
2019-02-05T18:05:55.531Z,101195.84
2019-02-05T18:08:21.912Z,101197.39
2019-02-05T18:10:48.202Z,101199.87
2019-02-05T18:13:14.791Z,101200.24
2019-02-05T18:15:42.834Z,101208.80
2019-02-05T18:18:09.291Z,101214.77
2019-02-05T18:20:36.187Z,101215.95
2019-02-05T18:23:03.477Z,101217.30
2019-02-05T18:25:29.898Z,101221.56
2019-02-05T18:27:56.270Z,101220.98
2019-02-05T18:30:35.618Z,101219.02
2019-02-05T18:33:04.355Z,101215.45
2019-02-05T18:35:30.760Z,101224.64
2019-02-05T18:37:58.829Z,101221.66
2019-02-05T18:40:26.999Z,101225.95
2019-02-05T18:42:54.070Z,101227.63
2019-02-05T18:45:22.285Z,101225.39
2019-02-05T18:47:49.093Z,101224.75
2019-02-05T18:50:21.991Z,101226.39
2019-02-05T18:52:48.617Z,101226.65
2019-02-05T18:55:15.443Z,101223.42
2019-02-05T18:57:43.678Z,101214.20
2019-02-05T19:00:32.129Z,101207.61
2019-02-05T19:02:59.285Z,101213.47
2019-02-05T19:05:26.390Z,101216.67
2019-02-05T19:07:53.137Z,101218.36
2019-02-05T19:10:24.588Z,101219.91
2019-02-05T19:12:51.751Z,101221.84
2019-02-05T19:15:29.441Z,101221.24
2019-02-05T19:17:56.061Z,101228.20
2019-02-05T19:20:26.082Z,101223.64
2019-02-05T19:22:53.071Z,101225.34
2019-02-05T19:25:21.440Z,101223.70
2019-02-05T19:27:50.469Z,101226.41
2019-02-05T19:30:23.132Z,101228.05
2019-02-05T19:32:50.327Z,101228.88
2019-02-05T19:35:17.491Z,101231.55
2019-02-05T19:37:45.819Z,101231.37
2019-02-05T19:40:12.741Z,101235.51
2019-02-05T19:42:39.655Z,101233.37
2019-02-05T19:45:20.894Z,101241.38
2019-02-05T19:47:47.606Z,101243.20
2019-02-05T19:50:14.664Z,101242.34
2019-02-05T19:52:42.399Z,101245.73
2019-02-05T19:55:10.102Z,101243.93
2019-02-05T19:57:37.000Z,101248.62
2019-02-05T20:00:12.306Z,101246.30
2019-02-05T20:02:38.964Z,101240.52
2019-02-05T20:05:08.847Z,101244.57
2019-02-05T20:07:36.472Z,101242.31
2019-02-05T20:10:08.339Z,101246.54
2019-02-05T20:12:36.926Z,101247.13
2019-02-05T20:15:13.979Z,101247.34
2019-02-05T20:17:40.471Z,101249.25
2019-02-05T20:20:20.733Z,101247.72
2019-02-05T20:22:47.794Z,101250.87
2019-02-05T20:25:16.521Z,101253.70
2019-02-05T20:27:43.030Z,101252.19
2019-02-05T20:30:24.340Z,101254.51
2019-02-05T20:32:50.918Z,101258.84
2019-02-05T20:35:17.855Z,101259.12
2019-02-05T20:37:44.569Z,101258.83
2019-02-05T20:40:17.074Z,101262.62
2019-02-05T20:42:43.630Z,101264.70
2019-02-05T20:45:12.017Z,101260.48
2019-02-05T20:47:39.211Z,101260.98
2019-02-05T20:50:13.689Z,101261.54
2019-02-05T20:52:40.596Z,101260.59
2019-02-05T20:55:12.120Z,101258.42
2019-02-05T20:57:39.156Z,101259.78
2019-02-05T21:00:14.615Z,101257.91
2019-02-05T21:02:41.093Z,101258.39
2019-02-05T21:05:12.695Z,101263.41
2019-02-05T21:07:39.164Z,101260.62
2019-02-05T21:10:11.337Z,101255.91
2019-02-05T21:12:38.093Z,101257.31
2019-02-05T21:15:10.140Z,101250.73
2019-02-05T21:17:36.496Z,101256.52
2019-02-05T21:20:08.608Z,101252.39
2019-02-05T21:22:36.860Z,101254.36
2019-02-05T21:25:08.370Z,101254.13
2019-02-05T21:27:35.079Z,101255.67
2019-02-05T21:30:01.683Z,101251.72
2019-02-05T21:32:27.940Z,101254.88
2019-02-05T21:34:54.294Z,101252.15
2019-02-05T21:37:40.623Z,101255.08
2019-02-05T21:40:12.283Z,101255.52
2019-02-05T21:42:38.743Z,101258.05
2019-02-05T21:45:10.780Z,101265.28
2019-02-05T21:47:36.978Z,101264.61
2019-02-05T21:50:16.155Z,101262.29
2019-02-05T21:52:42.336Z,101262.66
2019-02-05T21:55:10.886Z,101263.92
2019-02-05T21:57:37.365Z,101263.34
2019-02-05T22:00:14.386Z,101271.66
2019-02-05T22:02:40.652Z,101263.44
2019-02-05T22:05:11.029Z,101261.80
2019-02-05T22:07:37.309Z,101263.54
2019-02-05T22:10:05.947Z,101259.41
2019-02-05T22:12:32.311Z,101258.72
2019-02-05T22:14:58.521Z,101252.75
2019-02-05T22:17:24.965Z,101259.40
2019-02-05T22:19:51.270Z,101254.70
2019-02-05T22:22:17.486Z,101256.41
2019-02-05T22:24:44.784Z,101258.80
2019-02-05T22:27:11.377Z,101251.84
2019-02-05T22:29:37.541Z,101253.61
2019-02-05T22:32:03.781Z,101248.70
2019-02-05T22:34:38.842Z,101246.50
2019-02-05T22:36:58.405Z,101249.38
2019-02-05T22:39:24.637Z,101247.06
2019-02-05T22:41:50.796Z,101250.28
2019-02-05T22:44:17.180Z,101250.94
2019-02-05T22:46:43.790Z,101256.08
2019-02-05T22:49:10.035Z,101256.71
2019-02-05T22:51:36.292Z,101262.31
2019-02-05T22:54:03.284Z,101258.03
2019-02-05T22:56:29.600Z,101258.30
2019-02-05T22:58:56.180Z,101256.76
2019-02-05T23:01:34.331Z,101261.05
2019-02-05T23:04:06.197Z,101257.23
2019-02-05T23:06:40.821Z,101257.52
2019-02-05T23:09:33.174Z,101254.80
2019-02-05T23:12:13.714Z,101255.55
2019-02-05T23:14:40.521Z,101261.41
2019-02-05T23:17:06.824Z,101258.81
2019-02-05T23:19:32.993Z,101258.23
2019-02-05T23:21:59.195Z,101259.38
2019-02-05T23:24:25.490Z,101260.57
2019-02-05T23:26:51.686Z,101259.42
2019-02-05T23:29:18.479Z,101262.08
2019-02-05T23:31:44.693Z,101266.17
2019-02-05T23:34:10.875Z,101258.64
2019-02-05T23:36:42.432Z,101262.45
2019-02-05T23:39:09.567Z,101261.16
2019-02-05T23:41:35.795Z,101263.48
2019-02-05T23:44:01.964Z,101264.62
2019-02-05T23:46:33.121Z,101260.99
2019-02-05T23:48:59.368Z,101264.15
2019-02-05T23:51:25.913Z,101265.41
2019-02-05T23:53:52.412Z,101265.61
2019-02-05T23:56:25.717Z,101265.91
2019-02-05T23:58:47.058Z,101271.14
